Time;durP1;ratioP1;P1;durP2;ratioP2;P2;SDS_P1;SDS_P2;PMS_P1;PMS_P2;Temp;Humidity;BMP_temperature;BMP_pressure;BME280_temperature;BME280_humidity;BME280_pressure;Samples;Min_cycle;Max_cycle;Signal;HPM_P1;HPM_P2
2022/03/11 00:02:11;;;;;;;21.50;10.05;;;;;;;7.07;54.49;101778.34;5046772;28;20041;-53
2022/03/11 00:04:36;;;;;;;20.38;10.13;;;;;;;7.06;55.50;101770.50;5034742;28;20033;-54
2022/03/11 00:07:02;;;;;;;18.23;9.43;;;;;;;7.04;55.96;101770.63;5032824;28;20032;-56
2022/03/11 00:09:27;;;;;;;22.27;9.35;;;;;;;7.05;58.18;101771.47;5035873;28;20100;-54
2022/03/11 00:11:52;;;;;;;20.77;10.20;;;;;;;7.01;57.57;101765.56;5043835;28;20581;-54
2022/03/11 00:14:18;;;;;;;23.15;9.98;;;;;;;6.97;57.56;101766.72;5029542;28;20112;-55
2022/03/11 00:16:43;;;;;;;21.55;9.90;;;;;;;6.92;57.50;101766.22;5050736;28;20364;-54
2022/03/11 00:19:08;;;;;;;21.45;9.43;;;;;;;6.91;57.68;101760.06;5029126;28;20056;-55
2022/03/11 00:21:34;;;;;;;22.75;9.93;;;;;;;6.84;56.05;101760.63;5032138;28;20040;-53
2022/03/11 00:23:59;;;;;;;21.00;9.68;;;;;;;6.80;57.68;101751.22;5029869;28;20483;-54
2022/03/11 00:26:24;;;;;;;20.27;10.13;;;;;;;6.77;58.35;101759.41;5032366;28;20687;-55
2022/03/11 00:28:50;;;;;;;19.73;9.88;;;;;;;6.73;57.14;101754.31;5032272;28;20172;-54
2022/03/11 00:31:16;;;;;;;21.83;9.65;;;;;;;6.72;57.45;101749.97;5020428;28;20262;-53
2022/03/11 00:33:41;;;;;;;22.65;9.73;;;;;;;6.74;57.67;101760.50;5038356;28;20698;-53
2022/03/11 00:36:06;;;;;;;18.88;9.45;;;;;;;6.70;57.64;101751.91;5042959;28;20040;-54
2022/03/11 00:38:32;;;;;;;25.25;9.73;;;;;;;6.66;56.84;101747.78;5055190;28;20040;-54
2022/03/11 00:40:58;;;;;;;18.88;9.80;;;;;;;6.70;58.06;101748.38;5035690;28;20429;-55
2022/03/11 00:43:23;;;;;;;21.92;9.77;;;;;;;6.71;56.65;101752.75;5036946;28;20122;-54
2022/03/11 00:45:49;;;;;;;18.15;9.70;;;;;;;6.69;56.54;101754.69;5048456;28;20271;-54
2022/03/11 00:48:14;;;;;;;20.58;10.23;;;;;;;6.67;57.43;101752.13;5052441;28;20043;-54
2022/03/11 00:50:40;;;;;;;22.95;9.55;;;;;;;6.67;57.09;101751.25;5041596;28;20025;-55
2022/03/11 00:53:05;;;;;;;26.70;10.20;;;;;;;6.63;56.30;101742.69;5024191;28;20169;-54
2022/03/11 00:55:30;;;;;;;19.13;9.55;;;;;;;6.60;56.25;101745.59;5035400;28;20116;-54
2022/03/11 00:57:56;;;;;;;22.63;9.13;;;;;;;6.59;55.79;101740.41;5047522;28;20227;-54
2022/03/11 01:00:21;;;;;;;19.95;10.40;;;;;;;6.59;57.90;101741.22;5054339;28;20123;-54
2022/03/11 01:02:46;;;;;;;21.25;10.45;;;;;;;6.56;55.91;101740.59;5037771;28;20782;-53
2022/03/11 01:05:12;;;;;;;20.92;10.30;;;;;;;6.56;56.40;101736.13;5048296;28;20418;-53
2022/03/11 01:07:38;;;;;;;20.05;9.50;;;;;;;6.55;57.42;101731.78;5035116;28;20094;-54
2022/03/11 01:10:04;;;;;;;17.98;9.48;;;;;;;6.53;56.54;101731.06;5043277;28;20028;-54
2022/03/11 01:12:30;;;;;;;20.55;9.85;;;;;;;6.48;54.97;101719.94;5041239;28;20509;-54
2022/03/11 01:14:55;;;;;;;18.60;9.43;;;;;;;6.48;57.44;101720.81;5049896;28;20345;-53
2022/03/11 01:17:20;;;;;;;20.40;9.65;;;;;;;6.42;56.49;101707.97;5052724;28;20029;-55
2022/03/11 01:19:45;;;;;;;20.80;9.23;;;;;;;6.46;56.97;101716.56;5053704;28;20043;-54
2022/03/11 01:22:11;;;;;;;20.92;9.82;;;;;;;6.44;56.68;101710.50;5054653;28;20025;-54
2022/03/11 01:24:36;;;;;;;20.38;9.70;;;;;;;6.41;55.95;101708.91;5050670;28;20482;-54
2022/03/11 01:27:01;;;;;;;19.23;8.80;;;;;;;6.41;58.39;101705.44;5034504;28;20079;-54
2022/03/11 01:29:27;;;;;;;18.63;9.57;;;;;;;6.39;55.87;101702.03;5034716;28;20436;-55
2022/03/11 01:31:53;;;;;;;23.80;10.18;;;;;;;6.37;56.28;101699.50;5044888;28;20396;-54
2022/03/11 01:34:19;;;;;;;21.33;10.07;;;;;;;6.34;56.57;101699.72;5049884;28;20028;-55
2022/03/11 01:36:45;;;;;;;18.17;9.32;;;;;;;6.34;56.11;101699.72;5050181;28;20052;-53
2022/03/11 01:39:10;;;;;;;17.77;9.75;;;;;;;6.32;56.71;101691.03;5038062;28;20036;-54
2022/03/11 01:41:36;;;;;;;17.90;9.63;;;;;;;6.32;58.60;101688.38;5034053;28;20029;-54
2022/03/11 01:44:06;;;;;;;21.48;10.63;;;;;;;6.28;57.14;101685.13;5033356;28;20021;-54
2022/03/11 01:46:32;;;;;;;20.15;10.20;;;;;;;6.27;57.58;101679.91;5047259;28;20036;-54
2022/03/11 01:48:59;;;;;;;27.70;9.70;;;;;;;6.23;56.65;101675.78;5035018;28;20029;-54
2022/03/11 01:51:26;;;;;;;19.08;10.10;;;;;;;6.20;56.01;101668.91;5055068;28;20086;-55
2022/03/11 01:53:52;;;;;;;17.48;9.05;;;;;;;6.18;56.88;101665.53;5052635;28;20043;-53
2022/03/11 01:56:18;;;;;;;18.13;9.60;;;;;;;6.14;57.27;101662.25;5054726;28;20477;-55
2022/03/11 01:58:47;;;;;;;23.67;9.82;;;;;;;6.13;56.93;101660.56;5046670;28;20016;-53
2022/03/11 02:01:12;;;;;;;22.23;10.02;;;;;;;6.11;56.85;101651.88;5052654;28;20070;-53
2022/03/11 02:03:37;;;;;;;22.20;9.98;;;;;;;6.12;57.81;101658.84;5052902;28;20079;-53
2022/03/11 02:06:04;;;;;;;20.50;9.68;;;;;;;6.09;57.75;101647.63;5049687;28;20028;-55
2022/03/11 02:08:30;;;;;;;21.45;10.25;;;;;;;6.05;57.14;101648.81;5044074;28;20511;-54
2022/03/11 02:10:56;;;;;;;20.67;9.32;;;;;;;6.01;57.62;101650.84;5046588;28;20063;-54
2022/03/11 02:13:22;;;;;;;21.42;10.25;;;;;;;5.96;58.69;101643.22;5052981;28;20138;-54
2022/03/11 02:15:47;;;;;;;19.65;9.50;;;;;;;5.94;58.39;101644.22;5048463;28;20167;-54
2022/03/11 02:18:12;;;;;;;20.45;10.10;;;;;;;5.91;57.56;101633.88;5052021;28;20040;-54
2022/03/11 02:20:38;;;;;;;22.42;9.77;;;;;;;5.87;59.08;101633.25;5052961;28;20137;-54
2022/03/11 02:23:06;;;;;;;19.70;10.00;;;;;;;5.83;59.37;101618.50;5031689;28;20497;-53
2022/03/11 02:25:32;;;;;;;17.05;9.30;;;;;;;5.78;58.10;101621.50;5015211;28;20040;-54
2022/03/11 02:27:57;;;;;;;20.35;9.98;;;;;;;5.78;59.75;101629.44;5033168;28;20097;-54
2022/03/11 02:30:23;;;;;;;19.13;9.80;;;;;;;5.75;59.40;101619.09;5034009;28;20120;-54
2022/03/11 02:32:48;;;;;;;19.55;9.77;;;;;;;5.71;59.16;101617.59;5032692;28;20113;-54
2022/03/11 02:35:15;;;;;;;19.05;9.82;;;;;;;5.68;59.72;101614.31;5038936;28;20040;-54
2022/03/11 02:37:40;;;;;;;19.10;9.57;;;;;;;5.66;59.48;101614.44;5033334;28;20413;-56
2022/03/11 02:40:07;;;;;;;22.85;9.25;;;;;;;5.65;60.25;101606.59;5050237;28;20032;-54
2022/03/11 02:42:32;;;;;;;22.30;9.57;;;;;;;5.63;60.55;101603.19;5036247;28;20087;-55
2022/03/11 02:44:59;;;;;;;21.05;10.45;;;;;;;5.56;59.33;101598.34;5037031;28;20059;-55
2022/03/11 02:47:25;;;;;;;19.42;9.63;;;;;;;5.58;60.41;101600.88;5054551;28;20090;-55
2022/03/11 02:49:50;;;;;;;19.83;10.27;;;;;;;5.56;60.84;101602.78;5033170;28;20028;-54
2022/03/11 02:52:15;;;;;;;24.90;10.30;;;;;;;5.52;59.32;101602.16;5031918;28;20060;-55
2022/03/11 02:54:41;;;;;;;22.75;9.73;;;;;;;5.50;59.33;101593.50;5045783;28;20032;-55
2022/03/11 02:57:06;;;;;;;21.17;9.55;;;;;;;5.48;59.14;101598.06;5039439;28;20025;-55
2022/03/11 02:59:31;;;;;;;23.70;9.70;;;;;;;5.48;60.16;101591.91;5037247;28;20024;-55
2022/03/11 03:01:56;;;;;;;22.15;9.90;;;;;;;5.45;60.67;101592.97;5053779;28;20071;-55
2022/03/11 03:04:22;;;;;;;20.20;9.60;;;;;;;5.45;60.62;101592.09;5052320;28;20120;-55
2022/03/11 03:06:47;;;;;;;20.67;9.75;;;;;;;5.43;60.73;101589.56;5035225;28;20158;-54
2022/03/11 03:09:12;;;;;;;20.30;9.85;;;;;;;5.41;60.19;101588.84;5033010;28;20388;-54
2022/03/11 03:11:38;;;;;;;18.85;9.57;;;;;;;5.40;60.79;101581.88;5050029;28;20044;-54
2022/03/11 03:14:03;;;;;;;21.05;9.88;;;;;;;5.39;62.00;101585.44;5051984;28;20025;-54
2022/03/11 03:16:29;;;;;;;21.73;9.70;;;;;;;5.37;62.14;101585.56;5043513;28;20094;-54
2022/03/11 03:18:54;;;;;;;20.05;9.38;;;;;;;5.36;60.56;101596.25;5052890;28;20025;-54
2022/03/11 03:21:20;;;;;;;20.23;9.70;;;;;;;5.35;62.25;101595.44;5051922;28;20055;-53
2022/03/11 03:23:45;;;;;;;20.50;10.13;;;;;;;5.31;61.00;101593.97;5052627;28;20375;-54
2022/03/11 03:26:11;;;;;;;22.10;9.45;;;;;;;5.30;60.99;101578.19;5052898;28;20036;-54
2022/03/11 03:28:37;;;;;;;20.77;10.00;;;;;;;5.27;60.93;101576.56;5050999;28;20101;-53
2022/03/11 03:31:02;;;;;;;21.23;9.95;;;;;;;5.27;60.48;101581.88;5052330;28;20040;-54
2022/03/11 03:33:27;;;;;;;18.40;9.05;;;;;;;5.29;61.13;101584.41;5051694;28;20028;-54
2022/03/11 03:35:53;;;;;;;19.80;9.65;;;;;;;5.26;62.11;101580.19;5052648;28;20025;-54
2022/03/11 03:38:18;;;;;;;21.30;9.60;;;;;;;5.25;60.79;101583.78;5051467;28;20024;-54
2022/03/11 03:40:43;;;;;;;20.70;9.65;;;;;;;5.23;60.77;101583.91;5052013;28;20036;-54
2022/03/11 03:43:08;;;;;;;19.35;9.15;;;;;;;5.23;61.09;101577.75;5051156;28;20048;-54
2022/03/11 03:45:34;;;;;;;23.70;9.45;;;;;;;5.20;61.25;101583.28;5032435;28;20044;-54
2022/03/11 03:48:00;;;;;;;20.58;9.77;;;;;;;5.19;61.32;101578.91;5028322;28;20475;-55
2022/03/11 03:50:26;;;;;;;20.38;9.80;;;;;;;5.16;61.36;101571.19;5026867;28;20482;-53
2022/03/11 03:52:51;;;;;;;22.10;9.60;;;;;;;5.15;62.79;101565.03;5042350;28;20065;-55
2022/03/11 03:55:17;;;;;;;23.27;10.02;;;;;;;5.14;62.82;101571.31;5032235;28;20079;-55
2022/03/11 03:57:42;;;;;;;23.27;10.35;;;;;;;5.10;61.11;101571.63;5032120;28;20087;-56
2022/03/11 04:00:09;;;;;;;19.83;9.77;;;;;;;5.09;61.23;101564.63;5052065;28;20042;-53
2022/03/11 04:02:36;;;;;;;17.33;9.10;;;;;;;5.09;63.27;101567.28;5045346;28;20124;-54
2022/03/11 04:05:02;;;;;;;21.95;9.43;;;;;;;5.05;61.88;101567.47;5037310;28;20040;-54
2022/03/11 04:07:28;;;;;;;19.55;8.95;;;;;;;5.03;62.46;101557.97;5040164;28;20275;-54
2022/03/11 04:09:53;;;;;;;18.15;9.20;;;;;;;5.02;62.42;101569.50;5046935;28;20029;-54
2022/03/11 04:12:18;;;;;;;16.55;8.75;;;;;;;5.00;62.86;101561.66;5036294;28;20032;-53
2022/03/11 04:14:43;;;;;;;24.83;9.63;;;;;;;4.97;62.26;101558.38;5056401;28;20647;-54
2022/03/11 04:17:09;;;;;;;16.55;9.35;;;;;;;4.95;62.23;101560.31;5052072;28;20120;-53
2022/03/11 04:19:34;;;;;;;20.83;9.57;;;;;;;4.92;62.99;101558.72;5030487;28;20040;-55
2022/03/11 04:22:00;;;;;;;19.80;8.75;;;;;;;4.91;62.34;101561.47;5054161;28;20024;-54
2022/03/11 04:24:25;;;;;;;22.75;9.63;;;;;;;4.88;62.60;101559.03;5055169;28;20059;-53
2022/03/11 04:26:50;;;;;;;24.45;9.27;;;;;;;4.86;62.65;101556.50;5057258;28;20028;-54
2022/03/11 04:29:16;;;;;;;20.17;9.52;;;;;;;4.82;62.06;101560.28;5037572;28;20613;-53
2022/03/11 04:31:41;;;;;;;20.00;9.98;;;;;;;4.84;62.54;101558.41;5056255;28;20081;-55
2022/03/11 04:34:06;;;;;;;20.33;9.32;;;;;;;4.80;63.14;101559.56;5052573;28;20161;-56
2022/03/11 04:36:33;;;;;;;23.95;9.25;;;;;;;4.76;63.40;101551.00;5055695;28;20113;-54
2022/03/11 04:39:00;;;;;;;17.30;8.75;;;;;;;4.75;63.51;101556.38;5055808;28;20056;-54
2022/03/11 04:41:25;;;;;;;26.17;9.57;;;;;;;4.72;62.79;101553.94;5055030;28;20093;-52
2022/03/11 04:43:51;;;;;;;21.63;8.90;;;;;;;4.71;62.96;101546.97;5045137;28;20012;-54
2022/03/11 04:46:16;;;;;;;19.30;8.57;;;;;;;4.72;63.50;101549.53;5037547;28;20530;-60
2022/03/11 04:48:43;;;;;;;21.00;9.00;;;;;;;4.70;63.53;101548.78;5034939;28;20028;-53
2022/03/11 04:51:08;;;;;;;20.02;8.27;;;;;;;4.69;63.26;101547.09;5044040;28;20490;-53
2022/03/11 04:53:34;;;;;;;18.33;9.00;;;;;;;4.67;61.99;101541.91;5046156;28;20055;-52
2022/03/11 04:55:59;;;;;;;23.30;8.75;;;;;;;4.68;64.24;101550.66;5035645;28;20116;-55
2022/03/11 04:58:24;;;;;;;18.15;8.35;;;;;;;4.64;63.10;101546.56;5037034;28;20425;-55
2022/03/11 05:00:49;;;;;;;17.42;8.85;;;;;;;4.61;63.15;101555.53;5056688;28;20595;-54
2022/03/11 05:03:15;;;;;;;19.25;9.15;;;;;;;4.58;63.62;101549.59;5053550;28;20919;-55
2022/03/11 05:05:40;;;;;;;19.80;9.10;;;;;;;4.56;63.87;101539.13;5040693;28;20040;-54
2022/03/11 05:08:05;;;;;;;18.60;8.80;;;;;;;4.58;64.60;101544.31;5052110;28;20025;-54
2022/03/11 05:10:31;;;;;;;20.08;8.55;;;;;;;4.58;64.18;101539.03;5034893;28;20025;-53
2022/03/11 05:12:56;;;;;;;21.75;8.48;;;;;;;4.56;64.67;101533.84;5041478;28;20044;-54
2022/03/11 05:15:24;;;;;;;23.45;8.88;;;;;;;4.54;62.80;101530.44;5056245;28;20594;-54
2022/03/11 05:17:49;;;;;;;20.73;8.50;;;;;;;4.55;62.92;101536.59;5050661;28;20176;-54
2022/03/11 05:20:15;;;;;;;19.75;9.48;;;;;;;4.54;63.97;101538.38;5055746;28;20131;-53
2022/03/11 05:22:42;;;;;;;19.27;9.20;;;;;;;4.52;63.45;101540.31;5054364;28;20024;-53
2022/03/11 05:25:08;;;;;;;17.65;8.52;;;;;;;4.50;63.74;101534.28;5043014;28;20025;-54
2022/03/11 05:27:34;;;;;;;19.27;8.88;;;;;;;4.51;64.72;101535.13;5036031;28;20131;-54
2022/03/11 05:29:59;;;;;;;17.42;8.50;;;;;;;4.49;64.43;101538.69;5045418;28;20244;-54
2022/03/11 05:32:25;;;;;;;22.00;8.68;;;;;;;4.47;64.08;101529.19;5055280;28;20052;-55
2022/03/11 05:34:50;;;;;;;18.45;8.52;;;;;;;4.48;64.50;101534.38;5055175;28;20526;-54
2022/03/11 05:37:15;;;;;;;18.92;9.05;;;;;;;4.44;64.22;101522.28;5054099;28;20097;-54
2022/03/11 05:39:41;;;;;;;23.02;8.88;;;;;;;4.43;65.20;101517.97;5055080;28;20418;-54
2022/03/11 05:42:07;;;;;;;21.15;8.50;;;;;;;4.45;64.31;101531.09;5055163;28;20501;-55
2022/03/11 05:44:33;;;;;;;22.20;9.45;;;;;;;4.45;64.56;101529.28;5051225;28;20423;-55
2022/03/11 05:46:58;;;;;;;21.00;8.77;;;;;;;4.46;63.90;101524.84;5043510;28;20531;-54
2022/03/11 05:49:23;;;;;;;21.98;8.70;;;;;;;4.47;64.05;101523.91;5050226;28;20406;-54
2022/03/11 05:51:49;;;;;;;24.55;9.20;;;;;;;4.49;63.33;101521.97;5052024;28;20116;-53
2022/03/11 05:54:15;;;;;;;16.52;8.88;;;;;;;4.49;64.95;101516.69;5050062;28;20151;-54
2022/03/11 05:56:40;;;;;;;21.65;9.60;;;;;;;4.48;64.48;101525.56;5049876;28;20417;-55
2022/03/11 05:59:06;;;;;;;21.08;8.30;;;;;;;4.48;64.78;101518.50;5051302;28;20021;-52
2022/03/11 06:01:32;;;;;;;28.38;8.77;;;;;;;4.47;64.75;101514.16;5053276;28;20024;-54
2022/03/11 06:03:57;;;;;;;23.48;8.82;;;;;;;4.47;64.71;101514.16;5052144;28;20471;-54
2022/03/11 06:06:22;;;;;;;22.10;9.02;;;;;;;4.48;65.94;101517.63;5053461;28;20017;-55
2022/03/11 06:08:48;;;;;;;24.85;8.93;;;;;;;4.49;64.94;101519.34;5050922;28;20020;-55
2022/03/11 06:11:13;;;;;;;24.90;8.98;;;;;;;4.50;63.95;101515.75;5050294;28;20025;-53
2022/03/11 06:13:38;;;;;;;19.40;8.70;;;;;;;4.50;64.71;101513.13;5050667;28;20129;-55
2022/03/11 06:16:04;;;;;;;22.92;8.50;;;;;;;4.51;64.95;101517.44;5034276;28;20032;-54
2022/03/11 06:18:30;;;;;;;23.23;9.13;;;;;;;4.53;65.67;101518.19;5043176;28;20020;-53
2022/03/11 06:20:58;;;;;;;24.92;8.82;;;;;;;4.52;65.09;101516.50;5050662;28;20527;-55
2022/03/11 06:23:24;;;;;;;24.30;8.65;;;;;;;4.55;65.96;101518.94;5052418;28;20008;-54
2022/03/11 06:25:49;;;;;;;19.50;8.70;;;;;;;4.56;66.14;101520.59;5052353;28;20043;-54
2022/03/11 06:28:14;;;;;;;20.05;8.43;;;;;;;4.57;66.08;101518.84;5041186;28;20863;-55
2022/03/11 06:30:40;;;;;;;25.25;9.43;;;;;;;4.59;65.94;101523.03;5048503;28;20094;-54
2022/03/11 06:33:06;;;;;;;21.52;9.23;;;;;;;4.60;65.32;101519.47;5033195;28;20562;-54
2022/03/11 06:35:32;;;;;;;20.10;9.27;;;;;;;4.66;66.19;101526.13;5052915;28;20035;-54
2022/03/11 06:37:57;;;;;;;22.40;9.60;;;;;;;4.67;64.96;101526.03;5056693;28;20078;-54
2022/03/11 06:40:22;;;;;;;18.60;9.27;;;;;;;4.74;66.53;101526.44;5057665;28;20062;-54
2022/03/11 06:42:50;;;;;;;26.35;9.65;;;;;;;4.75;65.65;101519.34;5073110;28;20027;-54
2022/03/11 06:45:16;;;;;;;23.50;9.38;;;;;;;4.78;66.17;101524.44;5064227;28;20024;-55
2022/03/11 06:47:42;;;;;;;31.77;9.40;;;;;;;4.81;66.09;101524.22;5050506;28;20549;-54
2022/03/11 06:50:09;;;;;;;28.35;9.73;;;;;;;4.81;65.53;101522.41;5064373;28;20032;-55
2022/03/11 06:52:35;;;;;;;23.88;9.45;;;;;;;4.83;64.97;101522.31;5063713;28;20051;-55
2022/03/11 06:55:01;;;;;;;24.58;10.40;;;;;;;4.89;66.19;101523.66;5072376;28;20312;-53
2022/03/11 06:57:26;;;;;;;24.90;10.05;;;;;;;4.88;64.87;101514.06;5064422;28;20532;-53
2022/03/11 06:59:51;;;;;;;22.75;10.07;;;;;;;4.95;65.81;101512.66;5066363;28;20414;-53
2022/03/11 07:02:17;;;;;;;24.75;9.30;;;;;;;4.99;65.18;101508.81;5058558;28;20020;-53
2022/03/11 07:04:42;;;;;;;26.65;10.32;;;;;;;5.03;64.82;101518.25;5069154;28;20012;-54
2022/03/11 07:07:08;;;;;;;34.22;9.93;;;;;;;5.11;64.38;101515.06;5070952;28;20024;-55
2022/03/11 07:09:34;;;;;;;22.02;9.20;;;;;;;5.14;63.99;101513.06;5068918;28;20035;-53
2022/03/11 07:12:02;;;;;;;23.75;9.75;;;;;;;5.18;64.51;101503.94;5067471;28;20254;-54
2022/03/11 07:14:28;;;;;;;29.75;9.98;;;;;;;5.25;63.94;101509.63;5068389;28;20027;-54
2022/03/11 07:16:56;;;;;;;25.55;9.95;;;;;;;5.28;64.82;101490.88;5054029;28;20055;-54
2022/03/11 07:19:22;;;;;;;28.67;10.15;;;;;;;5.36;64.38;101504.44;5064140;28;20088;-55
2022/03/11 07:21:47;;;;;;;22.83;9.50;;;;;;;5.42;63.52;101506.59;5062226;28;20488;-54
2022/03/11 07:24:12;;;;;;;25.27;10.30;;;;;;;5.51;63.89;101501.59;5053508;28;20027;-54
2022/03/11 07:26:37;;;;;;;23.90;9.80;;;;;;;5.58;63.52;101509.00;5069211;28;20105;-54
2022/03/11 07:29:03;;;;;;;36.58;10.20;;;;;;;5.65;63.80;101503.22;5067325;28;20669;-55
2022/03/11 07:31:28;;;;;;;43.28;9.73;;;;;;;5.73;62.88;101507.00;5069491;28;20085;-54
2022/03/11 07:33:55;;;;;;;30.05;10.65;;;;;;;5.79;61.89;101503.06;5068662;28;20035;-55
2022/03/11 07:36:20;;;;;;;28.08;10.63;;;;;;;5.90;61.68;101510.22;5051091;28;20079;-54
2022/03/11 07:38:45;;;;;;;30.92;11.23;;;;;;;5.97;61.07;101503.53;5049957;28;20526;-54
2022/03/11 07:41:13;;;;;;;33.75;10.68;;;;;;;6.06;60.33;101504.63;5051976;28;20029;-54
2022/03/11 07:43:41;;;;;;;24.65;9.80;;;;;;;6.13;61.19;101508.53;5034476;28;20162;-54
2022/03/11 07:46:06;;;;;;;24.08;10.43;;;;;;;6.23;60.31;101496.28;5055922;28;20024;-54
2022/03/11 07:48:32;;;;;;;22.90;10.20;;;;;;;6.31;60.26;101501.84;5055641;28;20520;-55
2022/03/11 07:50:57;;;;;;;31.15;10.27;;;;;;;6.40;59.42;101502.06;5055549;28;20035;-54
2022/03/11 07:53:22;;;;;;;25.60;11.00;;;;;;;6.46;59.21;101497.16;5037998;28;20379;-54
2022/03/11 07:55:48;;;;;;;23.17;10.65;;;;;;;6.57;59.72;101500.78;5043254;28;20032;-54
2022/03/11 07:58:13;;;;;;;25.80;10.25;;;;;;;6.65;57.86;101496.59;5037517;28;20337;-54
2022/03/11 08:00:41;;;;;;;27.08;10.52;;;;;;;6.72;58.37;101496.94;5036340;28;20121;-54
2022/03/11 08:03:06;;;;;;;22.80;10.95;;;;;;;6.81;58.30;101490.09;5047340;28;20070;-55
2022/03/11 08:05:32;;;;;;;24.23;11.00;;;;;;;6.88;57.21;101494.78;5056598;28;20437;-54
2022/03/11 08:07:57;;;;;;;31.88;11.38;;;;;;;6.99;58.02;101482.44;5050023;28;20040;-54
2022/03/11 08:10:22;;;;;;;28.10;11.20;;;;;;;7.08;57.22;101485.22;5035723;28;20017;-53
2022/03/11 08:12:48;;;;;;;29.25;10.65;;;;;;;7.20;57.42;101483.41;5035793;28;20036;-54
2022/03/11 08:15:14;;;;;;;24.42;10.60;;;;;;;7.29;57.65;101484.47;5036890;28;20033;-55
2022/03/11 08:17:40;;;;;;;25.88;10.88;;;;;;;7.38;55.87;101489.06;5044121;28;20103;-54
2022/03/11 08:20:07;;;;;;;25.60;11.20;;;;;;;7.45;55.38;101478.75;5046843;28;20503;-55
2022/03/11 08:22:34;;;;;;;23.92;10.95;;;;;;;7.54;55.86;101477.16;5050647;28;20039;-55
2022/03/11 08:25:00;;;;;;;27.70;11.50;;;;;;;7.60;55.67;101474.00;5049192;28;20028;-54
2022/03/11 08:27:25;;;;;;;25.67;11.13;;;;;;;7.68;55.57;101466.22;5050782;28;20526;-55
2022/03/11 08:29:50;;;;;;;28.02;12.15;;;;;;;7.75;55.22;101472.72;5051120;28;20669;-54
2022/03/11 08:32:16;;;;;;;22.17;10.98;;;;;;;7.85;54.29;101467.50;5051322;28;20028;-54
2022/03/11 08:34:41;;;;;;;28.25;12.63;;;;;;;7.93;54.06;101469.53;5053461;28;20020;-55
2022/03/11 08:37:06;;;;;;;25.63;11.77;;;;;;;8.00;54.28;101468.84;5050824;28;20132;-55
2022/03/11 08:39:31;;;;;;;24.92;12.05;;;;;;;8.11;53.68;101469.78;5049617;28;20017;-55
2022/03/11 08:41:57;;;;;;;27.70;12.20;;;;;;;8.17;53.51;101474.59;5054694;28;20530;-55
2022/03/11 08:44:22;;;;;;;26.55;12.40;;;;;;;8.30;54.53;101471.72;5055719;28;20023;-55
2022/03/11 08:46:48;;;;;;;31.73;13.25;;;;;;;8.40;54.19;101457.50;5040677;28;20032;-55
2022/03/11 08:49:13;;;;;;;25.35;12.75;;;;;;;8.47;53.50;101476.50;5026734;28;20032;-54
2022/03/11 08:51:41;;;;;;;29.45;13.18;;;;;;;8.54;53.21;101467.00;5054200;28;20054;-54
2022/03/11 08:54:06;;;;;;;26.45;12.73;;;;;;;8.62;51.90;101468.13;5045209;28;20036;-56
2022/03/11 08:56:31;;;;;;;28.63;12.63;;;;;;;8.70;52.36;101465.66;5042482;28;20029;-54
2022/03/11 08:58:57;;;;;;;32.38;12.73;;;;;;;8.77;52.48;101465.00;5048083;28;20086;-55
2022/03/11 09:01:22;;;;;;;25.48;12.10;;;;;;;8.87;51.52;101459.69;5045586;28;20033;-54
2022/03/11 09:03:47;;;;;;;34.35;13.02;;;;;;;8.99;52.30;101462.25;5039535;28;20029;-55
2022/03/11 09:06:13;;;;;;;32.80;13.63;;;;;;;9.10;51.77;101468.31;5035932;28;20584;-55
2022/03/11 09:08:38;;;;;;;23.60;12.13;;;;;;;9.22;51.93;101455.72;5032472;28;20075;-55
2022/03/11 09:11:04;;;;;;;28.75;12.52;;;;;;;9.36;52.50;101462.47;5045853;28;20829;-58
2022/03/11 09:13:29;;;;;;;25.25;12.45;;;;;;;9.40;50.67;101447.91;5051462;28;20039;-55
2022/03/11 09:15:54;;;;;;;31.77;13.40;;;;;;;9.53;53.22;101447.63;5034536;28;20193;-56
2022/03/11 09:18:19;;;;;;;27.33;12.38;;;;;;;9.69;50.07;101455.06;5051197;28;20039;-56
2022/03/11 09:20:45;;;;;;;31.75;13.43;;;;;;;9.75;49.98;101443.00;5050454;28;20471;-53
2022/03/11 09:23:11;;;;;;;30.20;13.45;;;;;;;9.84;50.06;101450.16;5048747;28;20302;-55
2022/03/11 09:25:37;;;;;;;32.28;13.32;;;;;;;9.96;50.15;101437.50;5046980;28;20340;-53
2022/03/11 09:28:03;;;;;;;29.50;13.48;;;;;;;10.04;49.71;101430.47;5033831;28;20057;-55
2022/03/11 09:30:28;;;;;;;36.67;13.85;;;;;;;10.12;50.03;101431.59;5048397;28;20054;-52
2022/03/11 09:32:54;;;;;;;33.90;13.25;;;;;;;10.21;49.11;101428.88;5054116;28;20070;-54
2022/03/11 09:35:19;;;;;;;31.63;13.15;;;;;;;10.33;48.98;101434.09;5051747;28;20536;-54
2022/03/11 09:37:44;;;;;;;27.85;12.68;;;;;;;10.45;48.69;101428.44;5049040;28;20668;-54
2022/03/11 09:40:12;;;;;;;31.35;12.77;;;;;;;10.58;49.23;101428.09;5074143;28;20024;-55
2022/03/11 09:42:37;;;;;;;23.65;12.30;;;;;;;10.68;48.30;101420.06;5064647;28;20531;-55
2022/03/11 09:45:03;;;;;;;30.15;12.35;;;;;;;10.81;47.59;101422.38;5072353;28;20024;-54
2022/03/11 09:47:29;;;;;;;27.80;12.23;;;;;;;10.87;47.23;101421.78;5071729;28;20591;-54
2022/03/11 09:49:55;;;;;;;27.55;12.82;;;;;;;10.86;46.62;101414.75;5071189;28;20024;-55
2022/03/11 09:52:20;;;;;;;24.50;12.18;;;;;;;11.00;48.38;101410.75;5072261;28;20028;-54
2022/03/11 09:54:46;;;;;;;27.05;12.65;;;;;;;11.16;47.54;101404.72;5072992;28;20786;-53
2022/03/11 09:57:17;;;;;;;23.73;12.38;;;;;;;11.27;46.96;101395.63;5073743;28;20039;-54
2022/03/11 09:59:43;;;;;;;28.75;12.77;;;;;;;11.39;47.17;101395.28;5057800;28;20104;-54
2022/03/11 10:02:15;;;;;;;37.15;12.57;;;;;;;11.49;46.91;101395.19;5070262;28;20111;-54
2022/03/11 10:04:52;;;;;;;31.88;12.15;;;;;;;11.57;46.66;101392.59;5063051;28;20035;-55
2022/03/11 10:07:25;;;;;;;31.08;13.35;;;;;;;11.63;45.87;101388.44;5059885;28;20588;-54
2022/03/11 10:09:51;;;;;;;25.77;12.95;;;;;;;11.73;46.02;101391.88;5072995;28;20023;-53
2022/03/11 10:12:27;;;;;;;39.53;12.60;;;;;;;11.85;46.07;101383.63;5074231;28;20316;-54
2022/03/11 10:14:57;;;;;;;27.90;12.95;;;;;;;12.01;46.47;101381.06;5072726;28;20089;-55
2022/03/11 10:17:23;;;;;;;32.92;12.80;;;;;;;12.18;45.52;101376.66;5072856;28;20478;-52
2022/03/11 10:20:05;;;;;;;22.73;11.57;;;;;;;12.34;45.97;101373.22;5073543;28;20119;-55
2022/03/11 10:22:31;;;;;;;28.13;12.07;;;;;;;12.39;44.94;101370.91;5071218;28;20492;-52
2022/03/11 10:25:05;;;;;;;24.55;11.90;;;;;;;12.55;46.09;101375.50;5065624;28;20020;-56
2022/03/11 10:27:30;;;;;;;25.70;12.18;;;;;;;12.65;45.43;101370.00;5069648;28;20188;-55
2022/03/11 10:30:02;;;;;;;20.83;11.65;;;;;;;12.82;45.72;101368.22;5058099;28;20370;-54
2022/03/11 10:32:27;;;;;;;21.02;12.52;;;;;;;12.98;44.40;101370.97;5057216;28;20165;-55
2022/03/11 10:34:53;;;;;;;22.95;12.60;;;;;;;13.10;43.98;101362.59;5068924;28;20066;-54
2022/03/11 10:37:19;;;;;;;22.75;11.63;;;;;;;13.21;44.52;101356.91;5072182;28;20341;-55
2022/03/11 10:39:46;;;;;;;22.65;12.23;;;;;;;13.32;43.38;101358.47;5069187;28;20122;-56
2022/03/11 10:42:12;;;;;;;23.45;11.98;;;;;;;13.33;43.11;101357.47;5052594;28;20024;-53
2022/03/11 10:44:38;;;;;;;24.20;11.70;;;;;;;13.36;43.61;101357.13;5063534;28;20016;-54
2022/03/11 10:47:20;;;;;;;29.77;12.25;;;;;;;13.53;43.69;101347.25;5073382;28;20268;-53
2022/03/11 10:50:07;;;;;;;27.73;12.00;;;;;;;13.75;43.09;101343.03;5066688;28;20040;-53
2022/03/11 10:52:35;;;;;;;25.35;12.38;;;;;;;13.86;42.49;101334.59;5067284;28;20038;-54
2022/03/11 10:55:26;;;;;;;25.75;11.98;;;;;;;13.93;41.78;101337.44;5061660;28;20036;-54
2022/03/11 10:57:53;;;;;;;23.20;11.65;;;;;;;13.96;42.17;101331.75;5073756;28;20163;-54
2022/03/11 11:00:21;;;;;;;27.92;12.40;;;;;;;14.05;41.90;101340.63;5066015;28;20078;-54
2022/03/11 11:02:48;;;;;;;25.92;12.02;;;;;;;14.06;41.62;101329.69;5072175;28;20115;-53
2022/03/11 11:05:14;;;;;;;24.42;12.63;;;;;;;14.14;41.34;101337.75;5067759;28;20028;-55
2022/03/11 11:07:41;;;;;;;25.05;12.40;;;;;;;14.23;41.93;101318.91;5072909;28;20016;-54
2022/03/11 11:10:07;;;;;;;30.67;13.20;;;;;;;14.35;41.96;101322.88;5072353;28;20023;-53
2022/03/11 11:12:33;;;;;;;42.95;13.63;;;;;;;14.45;40.45;101326.19;5067072;28;20032;-54
2022/03/11 11:14:58;;;;;;;34.75;13.60;;;;;;;14.46;40.68;101314.44;5067112;28;20419;-54